sensor_id;sensor_type;location;lat;lon;timestamp;pressure;altitude;pressure_sealevel;temperature;humidity
60246;BME280;46107;53.356;-1.524;2023-02-14T00:00:51;100302.27;;;5.63;65.94
60246;BME280;46107;53.356;-1.524;2023-02-14T00:03:18;100300.15;;;5.60;66.08
60246;BME280;46107;53.356;-1.524;2023-02-14T00:05:46;100301.68;;;5.20;65.51
60246;BME280;46107;53.356;-1.524;2023-02-14T00:08:14;100295.46;;;5.12;66.08
60246;BME280;46107;53.356;-1.524;2023-02-14T00:10:42;100295.11;;;5.00;66.55
60246;BME280;46107;53.356;-1.524;2023-02-14T00:13:10;100302.40;;;3.83;72.45
60246;BME280;46107;53.356;-1.524;2023-02-14T00:15:38;100299.64;;;4.87;69.19
60246;BME280;46107;53.356;-1.524;2023-02-14T00:18:06;100296.12;;;5.20;68.27
60246;BME280;46107;53.356;-1.524;2023-02-14T00:20:33;100293.07;;;5.15;67.41
60246;BME280;46107;53.356;-1.524;2023-02-14T00:23:00;100298.89;;;4.85;67.56
60246;BME280;46107;53.356;-1.524;2023-02-14T00:25:28;100299.43;;;5.31;65.11
60246;BME280;46107;53.356;-1.524;2023-02-14T00:27:56;100298.66;;;5.63;63.97
60246;BME280;46107;53.356;-1.524;2023-02-14T00:30:23;100298.41;;;5.38;64.39
60246;BME280;46107;53.356;-1.524;2023-02-14T00:32:50;100298.37;;;5.09;63.19
60246;BME280;46107;53.356;-1.524;2023-02-14T00:35:18;100297.23;;;5.29;63.71
60246;BME280;46107;53.356;-1.524;2023-02-14T00:37:46;100297.17;;;5.83;62.41
60246;BME280;46107;53.356;-1.524;2023-02-14T00:40:13;100294.14;;;4.84;62.71
60246;BME280;46107;53.356;-1.524;2023-02-14T00:42:41;100294.79;;;4.65;65.18
60246;BME280;46107;53.356;-1.524;2023-02-14T00:45:09;100301.24;;;4.48;68.02
60246;BME280;46107;53.356;-1.524;2023-02-14T00:47:37;100294.87;;;4.79;66.17
60246;BME280;46107;53.356;-1.524;2023-02-14T00:50:05;100293.39;;;4.39;67.91
60246;BME280;46107;53.356;-1.524;2023-02-14T00:52:33;100290.49;;;4.61;67.17
60246;BME280;46107;53.356;-1.524;2023-02-14T00:55:01;100284.81;;;4.84;65.40
60246;BME280;46107;53.356;-1.524;2023-02-14T00:57:29;100284.24;;;5.67;63.60
60246;BME280;46107;53.356;-1.524;2023-02-14T00:59:56;100283.46;;;5.55;63.24
60246;BME280;46107;53.356;-1.524;2023-02-14T01:02:24;100280.94;;;5.36;63.24
60246;BME280;46107;53.356;-1.524;2023-02-14T01:04:51;100278.84;;;5.78;62.93
60246;BME280;46107;53.356;-1.524;2023-02-14T01:07:19;100277.09;;;5.97;61.15
60246;BME280;46107;53.356;-1.524;2023-02-14T01:09:46;100269.11;;;6.31;59.17
60246;BME280;46107;53.356;-1.524;2023-02-14T01:12:14;100263.01;;;5.89;59.33
60246;BME280;46107;53.356;-1.524;2023-02-14T01:14:41;100265.79;;;5.59;59.32
60246;BME280;46107;53.356;-1.524;2023-02-14T01:17:08;100261.69;;;5.98;59.35
60246;BME280;46107;53.356;-1.524;2023-02-14T01:19:36;100261.14;;;5.64;59.78
60246;BME280;46107;53.356;-1.524;2023-02-14T01:22:03;100260.95;;;4.74;62.63
60246;BME280;46107;53.356;-1.524;2023-02-14T01:24:30;100259.56;;;4.97;63.73
60246;BME280;46107;53.356;-1.524;2023-02-14T01:26:58;100259.98;;;4.99;64.45
60246;BME280;46107;53.356;-1.524;2023-02-14T01:29:26;100264.52;;;3.83;66.67
60246;BME280;46107;53.356;-1.524;2023-02-14T01:31:53;100259.69;;;4.15;66.80
60246;BME280;46107;53.356;-1.524;2023-02-14T01:34:21;100258.56;;;4.06;68.21
60246;BME280;46107;53.356;-1.524;2023-02-14T01:36:49;100259.45;;;3.73;70.78
60246;BME280;46107;53.356;-1.524;2023-02-14T01:39:17;100250.48;;;4.06;70.16
60246;BME280;46107;53.356;-1.524;2023-02-14T01:41:45;100256.05;;;3.67;73.44
60246;BME280;46107;53.356;-1.524;2023-02-14T01:45:25;100257.39;;;4.49;71.61
60246;BME280;46107;53.356;-1.524;2023-02-14T01:47:53;100260.08;;;3.90;72.05
60246;BME280;46107;53.356;-1.524;2023-02-14T01:50:25;100256.34;;;4.10;70.49
60246;BME280;46107;53.356;-1.524;2023-02-14T01:52:58;100253.02;;;3.89;70.91
60246;BME280;46107;53.356;-1.524;2023-02-14T01:55:36;100250.93;;;4.24;69.82
60246;BME280;46107;53.356;-1.524;2023-02-14T01:58:09;100246.20;;;4.08;70.68
60246;BME280;46107;53.356;-1.524;2023-02-14T02:00:39;100246.96;;;3.48;72.43
60246;BME280;46107;53.356;-1.524;2023-02-14T02:03:07;100249.26;;;3.58;73.38
60246;BME280;46107;53.356;-1.524;2023-02-14T02:05:37;100246.74;;;3.27;76.61
60246;BME280;46107;53.356;-1.524;2023-02-14T02:08:05;100251.08;;;3.76;73.17
60246;BME280;46107;53.356;-1.524;2023-02-14T02:10:33;100249.34;;;3.40;75.96
60246;BME280;46107;53.356;-1.524;2023-02-14T02:13:04;100247.87;;;3.25;79.66
60246;BME280;46107;53.356;-1.524;2023-02-14T02:15:37;100246.25;;;3.52;81.65
60246;BME280;46107;53.356;-1.524;2023-02-14T02:18:14;100240.71;;;2.91;81.60
60246;BME280;46107;53.356;-1.524;2023-02-14T02:22:21;100240.44;;;2.47;82.86
60246;BME280;46107;53.356;-1.524;2023-02-14T02:24:59;100233.41;;;2.59;85.85
60246;BME280;46107;53.356;-1.524;2023-02-14T02:28:24;100235.91;;;3.00;85.00
60246;BME280;46107;53.356;-1.524;2023-02-14T02:31:18;100228.89;;;3.16;85.07
60246;BME280;46107;53.356;-1.524;2023-02-14T02:34:21;100228.35;;;2.84;84.81
60246;BME280;46107;53.356;-1.524;2023-02-14T02:37:06;100222.15;;;2.26;84.37
60246;BME280;46107;53.356;-1.524;2023-02-14T02:39:51;100220.31;;;3.53;80.24
60246;BME280;46107;53.356;-1.524;2023-02-14T02:42:31;100205.49;;;3.49;79.08
60246;BME280;46107;53.356;-1.524;2023-02-14T02:45:11;100203.70;;;3.65;79.15
60246;BME280;46107;53.356;-1.524;2023-02-14T02:47:51;100205.51;;;3.26;79.54
60246;BME280;46107;53.356;-1.524;2023-02-14T02:50:25;100200.19;;;3.57;77.24
60246;BME280;46107;53.356;-1.524;2023-02-14T02:53:00;100216.55;;;3.04;79.16
60246;BME280;46107;53.356;-1.524;2023-02-14T02:55:39;100216.41;;;4.22;76.55
60246;BME280;46107;53.356;-1.524;2023-02-14T02:58:08;100216.69;;;3.71;76.49
60246;BME280;46107;53.356;-1.524;2023-02-14T03:00:35;100215.96;;;1.73;86.39
60246;BME280;46107;53.356;-1.524;2023-02-14T03:03:03;100219.57;;;2.74;85.42
60246;BME280;46107;53.356;-1.524;2023-02-14T03:05:31;100207.78;;;2.79;82.97
60246;BME280;46107;53.356;-1.524;2023-02-14T03:08:01;100195.55;;;2.71;82.77
60246;BME280;46107;53.356;-1.524;2023-02-14T03:10:31;100204.70;;;2.37;84.84
60246;BME280;46107;53.356;-1.524;2023-02-14T03:13:15;100201.63;;;2.44;84.49
60246;BME280;46107;53.356;-1.524;2023-02-14T03:15:59;100196.40;;;3.07;82.08
60246;BME280;46107;53.356;-1.524;2023-02-14T03:18:42;100187.17;;;2.99;82.73
60246;BME280;46107;53.356;-1.524;2023-02-14T03:21:15;100186.45;;;2.98;83.46
60246;BME280;46107;53.356;-1.524;2023-02-14T03:23:53;100189.21;;;3.35;80.56
60246;BME280;46107;53.356;-1.524;2023-02-14T03:26:28;100196.57;;;3.17;79.98
60246;BME280;46107;53.356;-1.524;2023-02-14T03:29:03;100182.47;;;2.80;80.10
60246;BME280;46107;53.356;-1.524;2023-02-14T03:31:43;100191.03;;;2.09;83.32
60246;BME280;46107;53.356;-1.524;2023-02-14T03:34:16;100186.38;;;2.68;82.01
60246;BME280;46107;53.356;-1.524;2023-02-14T03:36:49;100198.96;;;3.10;80.09
60246;BME280;46107;53.356;-1.524;2023-02-14T03:39:22;100202.71;;;2.12;83.94
60246;BME280;46107;53.356;-1.524;2023-02-14T03:41:56;100200.31;;;1.26;86.29
60246;BME280;46107;53.356;-1.524;2023-02-14T03:44:27;100195.70;;;2.06;85.46
60246;BME280;46107;53.356;-1.524;2023-02-14T03:47:00;100196.82;;;2.38;84.55
60246;BME280;46107;53.356;-1.524;2023-02-14T03:49:33;100204.74;;;1.76;86.32
60246;BME280;46107;53.356;-1.524;2023-02-14T03:52:03;100201.49;;;1.91;85.62
60246;BME280;46107;53.356;-1.524;2023-02-14T03:54:33;100194.06;;;1.90;84.92
60246;BME280;46107;53.356;-1.524;2023-02-14T03:57:10;100189.84;;;2.00;84.06
60246;BME280;46107;53.356;-1.524;2023-02-14T03:59:41;100188.22;;;2.19;82.07
60246;BME280;46107;53.356;-1.524;2023-02-14T04:02:12;100182.82;;;2.85;79.62
60246;BME280;46107;53.356;-1.524;2023-02-14T04:04:44;100195.13;;;3.26;77.29
60246;BME280;46107;53.356;-1.524;2023-02-14T04:07:13;100194.43;;;3.03;74.42
60246;BME280;46107;53.356;-1.524;2023-02-14T04:09:42;100184.83;;;3.47;71.98
60246;BME280;46107;53.356;-1.524;2023-02-14T04:12:11;100174.35;;;4.24;68.95
60246;BME280;46107;53.356;-1.524;2023-02-14T04:14:40;100180.72;;;3.05;70.44
60246;BME280;46107;53.356;-1.524;2023-02-14T04:17:07;100175.03;;;3.49;70.04
60246;BME280;46107;53.356;-1.524;2023-02-14T04:19:35;100172.82;;;3.56;71.04
60246;BME280;46107;53.356;-1.524;2023-02-14T04:22:03;100172.15;;;3.69;69.01
60246;BME280;46107;53.356;-1.524;2023-02-14T04:24:31;100163.06;;;3.89;70.11
60246;BME280;46107;53.356;-1.524;2023-02-14T04:26:58;100166.37;;;2.81;73.12
60246;BME280;46107;53.356;-1.524;2023-02-14T04:29:26;100171.67;;;3.14;72.79
60246;BME280;46107;53.356;-1.524;2023-02-14T04:31:54;100174.04;;;3.00;73.48
60246;BME280;46107;53.356;-1.524;2023-02-14T04:34:21;100171.77;;;3.19;72.75
60246;BME280;46107;53.356;-1.524;2023-02-14T04:36:49;100173.79;;;2.39;76.13
60246;BME280;46107;53.356;-1.524;2023-02-14T04:39:17;100178.75;;;2.22;74.47
60246;BME280;46107;53.356;-1.524;2023-02-14T04:41:50;100175.08;;;1.47;78.76
60246;BME280;46107;53.356;-1.524;2023-02-14T04:44:17;100175.35;;;3.36;73.31
60246;BME280;46107;53.356;-1.524;2023-02-14T04:46:45;100170.19;;;2.58;76.41
60246;BME280;46107;53.356;-1.524;2023-02-14T04:49:13;100169.52;;;2.55;74.79
60246;BME280;46107;53.356;-1.524;2023-02-14T04:51:40;100171.54;;;3.09;72.43
60246;BME280;46107;53.356;-1.524;2023-02-14T04:54:08;100172.28;;;3.63;69.97
60246;BME280;46107;53.356;-1.524;2023-02-14T04:56:36;100184.12;;;3.75;67.05
60246;BME280;46107;53.356;-1.524;2023-02-14T04:59:04;100185.72;;;3.76;67.35
60246;BME280;46107;53.356;-1.524;2023-02-14T05:01:32;100190.22;;;4.21;65.39
60246;BME280;46107;53.356;-1.524;2023-02-14T05:03:59;100189.81;;;2.92;67.01
60246;BME280;46107;53.356;-1.524;2023-02-14T05:06:26;100190.34;;;2.44;67.26
60246;BME280;46107;53.356;-1.524;2023-02-14T05:08:54;100168.27;;;2.47;69.29
60246;BME280;46107;53.356;-1.524;2023-02-14T05:11:21;100188.98;;;2.86;70.52
60246;BME280;46107;53.356;-1.524;2023-02-14T05:13:50;100182.68;;;2.49;69.73
60246;BME280;46107;53.356;-1.524;2023-02-14T05:16:17;100186.35;;;3.09;68.24
60246;BME280;46107;53.356;-1.524;2023-02-14T05:18:44;100184.01;;;3.19;67.23
60246;BME280;46107;53.356;-1.524;2023-02-14T05:21:12;100185.66;;;3.73;65.59
60246;BME280;46107;53.356;-1.524;2023-02-14T05:23:40;100181.52;;;2.96;66.34
60246;BME280;46107;53.356;-1.524;2023-02-14T05:26:08;100188.01;;;3.72;64.50
60246;BME280;46107;53.356;-1.524;2023-02-14T05:28:36;100185.94;;;3.29;65.03
60246;BME280;46107;53.356;-1.524;2023-02-14T05:31:04;100182.63;;;2.67;68.18
60246;BME280;46107;53.356;-1.524;2023-02-14T05:33:31;100185.76;;;2.11;70.34
60246;BME280;46107;53.356;-1.524;2023-02-14T05:36:00;100188.32;;;2.29;69.18
60246;BME280;46107;53.356;-1.524;2023-02-14T05:38:27;100194.15;;;3.04;66.55
60246;BME280;46107;53.356;-1.524;2023-02-14T05:40:55;100185.71;;;3.56;64.35
60246;BME280;46107;53.356;-1.524;2023-02-14T05:43:23;100186.48;;;1.72;67.07
60246;BME280;46107;53.356;-1.524;2023-02-14T05:45:50;100185.92;;;2.32;66.01
60246;BME280;46107;53.356;-1.524;2023-02-14T05:48:19;100183.46;;;1.99;68.86
60246;BME280;46107;53.356;-1.524;2023-02-14T05:50:47;100183.77;;;2.19;68.47
60246;BME280;46107;53.356;-1.524;2023-02-14T05:53:16;100183.24;;;0.69;73.65
60246;BME280;46107;53.356;-1.524;2023-02-14T05:55:44;100187.52;;;0.19;81.60
60246;BME280;46107;53.356;-1.524;2023-02-14T05:58:13;100183.89;;;2.05;72.83
60246;BME280;46107;53.356;-1.524;2023-02-14T06:00:41;100188.45;;;1.66;70.69
60246;BME280;46107;53.356;-1.524;2023-02-14T06:03:08;100191.60;;;1.46;70.05
60246;BME280;46107;53.356;-1.524;2023-02-14T06:05:36;100184.67;;;2.71;67.33
60246;BME280;46107;53.356;-1.524;2023-02-14T06:08:04;100183.76;;;3.26;64.20
60246;BME280;46107;53.356;-1.524;2023-02-14T06:10:32;100180.40;;;1.95;65.32
60246;BME280;46107;53.356;-1.524;2023-02-14T06:12:59;100187.83;;;2.77;63.13
60246;BME280;46107;53.356;-1.524;2023-02-14T06:15:27;100184.66;;;2.84;63.30
60246;BME280;46107;53.356;-1.524;2023-02-14T06:17:56;100184.99;;;3.45;61.52
60246;BME280;46107;53.356;-1.524;2023-02-14T06:20:24;100186.61;;;3.24;61.55
60246;BME280;46107;53.356;-1.524;2023-02-14T06:22:51;100181.63;;;2.81;63.84
60246;BME280;46107;53.356;-1.524;2023-02-14T06:25:19;100183.70;;;2.14;64.89
60246;BME280;46107;53.356;-1.524;2023-02-14T06:27:48;100182.95;;;2.90;62.98
60246;BME280;46107;53.356;-1.524;2023-02-14T06:30:17;100182.93;;;2.91;62.00
60246;BME280;46107;53.356;-1.524;2023-02-14T06:32:44;100182.48;;;1.94;65.98
60246;BME280;46107;53.356;-1.524;2023-02-14T06:35:13;100191.60;;;1.99;65.03
60246;BME280;46107;53.356;-1.524;2023-02-14T06:37:42;100189.49;;;2.34;64.12
60246;BME280;46107;53.356;-1.524;2023-02-14T06:40:10;100185.38;;;2.37;65.53
60246;BME280;46107;53.356;-1.524;2023-02-14T06:42:38;100189.29;;;2.68;63.55
60246;BME280;46107;53.356;-1.524;2023-02-14T06:45:06;100189.27;;;2.04;63.85
60246;BME280;46107;53.356;-1.524;2023-02-14T06:47:34;100189.49;;;2.13;65.02
60246;BME280;46107;53.356;-1.524;2023-02-14T06:50:02;100184.33;;;2.48;67.72
60246;BME280;46107;53.356;-1.524;2023-02-14T06:52:30;100182.74;;;2.20;71.95
60246;BME280;46107;53.356;-1.524;2023-02-14T06:54:58;100176.74;;;2.63;73.42
60246;BME280;46107;53.356;-1.524;2023-02-14T06:57:26;100185.28;;;2.20;76.58
60246;BME280;46107;53.356;-1.524;2023-02-14T06:59:53;100180.85;;;2.35;75.73
60246;BME280;46107;53.356;-1.524;2023-02-14T07:02:21;100175.90;;;3.01;73.58
60246;BME280;46107;53.356;-1.524;2023-02-14T07:04:48;100179.77;;;3.96;70.36
60246;BME280;46107;53.356;-1.524;2023-02-14T07:07:16;100177.08;;;3.07;73.52
60246;BME280;46107;53.356;-1.524;2023-02-14T07:09:44;100173.14;;;3.11;73.25
60246;BME280;46107;53.356;-1.524;2023-02-14T07:12:11;100172.74;;;3.43;68.14
60246;BME280;46107;53.356;-1.524;2023-02-14T07:14:40;100175.80;;;3.19;68.39
60246;BME280;46107;53.356;-1.524;2023-02-14T07:17:08;100175.85;;;3.07;66.51
60246;BME280;46107;53.356;-1.524;2023-02-14T07:19:36;100172.26;;;4.28;61.33
60246;BME280;46107;53.356;-1.524;2023-02-14T07:22:03;100175.97;;;3.40;61.39
60246;BME280;46107;53.356;-1.524;2023-02-14T07:24:30;100176.64;;;2.59;67.62
60246;BME280;46107;53.356;-1.524;2023-02-14T07:26:57;100175.69;;;3.76;62.08
60246;BME280;46107;53.356;-1.524;2023-02-14T07:29:25;100176.99;;;2.25;64.59
60246;BME280;46107;53.356;-1.524;2023-02-14T07:31:52;100181.63;;;2.12;68.77
60246;BME280;46107;53.356;-1.524;2023-02-14T07:34:20;100185.04;;;1.99;70.06
60246;BME280;46107;53.356;-1.524;2023-02-14T07:36:48;100186.51;;;3.20;64.51
60246;BME280;46107;53.356;-1.524;2023-02-14T07:39:16;100188.93;;;2.11;73.43
60246;BME280;46107;53.356;-1.524;2023-02-14T07:41:43;100192.38;;;1.96;71.07
60246;BME280;46107;53.356;-1.524;2023-02-14T07:44:11;100193.02;;;2.26;72.24
60246;BME280;46107;53.356;-1.524;2023-02-14T07:46:39;100201.78;;;1.54;75.39
60246;BME280;46107;53.356;-1.524;2023-02-14T07:49:07;100208.01;;;3.14;69.59
60246;BME280;46107;53.356;-1.524;2023-02-14T07:51:35;100199.26;;;2.71;71.04
60246;BME280;46107;53.356;-1.524;2023-02-14T07:54:03;100198.03;;;3.00;69.95
60246;BME280;46107;53.356;-1.524;2023-02-14T07:56:31;100197.03;;;2.58;72.14
60246;BME280;46107;53.356;-1.524;2023-02-14T07:58:59;100204.82;;;3.42;68.08
60246;BME280;46107;53.356;-1.524;2023-02-14T08:01:26;100210.54;;;3.36;67.65
60246;BME280;46107;53.356;-1.524;2023-02-14T08:03:54;100207.10;;;2.86;69.29
60246;BME280;46107;53.356;-1.524;2023-02-14T08:06:21;100205.01;;;4.25;64.90
60246;BME280;46107;53.356;-1.524;2023-02-14T08:08:49;100208.48;;;3.59;66.26
60246;BME280;46107;53.356;-1.524;2023-02-14T08:11:17;100212.12;;;3.81;67.66
60246;BME280;46107;53.356;-1.524;2023-02-14T08:13:45;100208.11;;;4.15;65.29
60246;BME280;46107;53.356;-1.524;2023-02-14T08:16:13;100214.04;;;4.42;62.94
60246;BME280;46107;53.356;-1.524;2023-02-14T08:18:41;100211.67;;;4.59;62.61
60246;BME280;46107;53.356;-1.524;2023-02-14T08:21:10;100217.18;;;4.67;62.09
60246;BME280;46107;53.356;-1.524;2023-02-14T08:23:37;100212.11;;;5.06;61.39
60246;BME280;46107;53.356;-1.524;2023-02-14T08:26:06;100213.45;;;5.10;60.80
60246;BME280;46107;53.356;-1.524;2023-02-14T08:28:34;100217.82;;;5.36;61.06
60246;BME280;46107;53.356;-1.524;2023-02-14T08:31:02;100219.39;;;5.19;61.46
60246;BME280;46107;53.356;-1.524;2023-02-14T08:33:30;100224.66;;;5.28;62.81
60246;BME280;46107;53.356;-1.524;2023-02-14T08:35:57;100223.21;;;5.65;60.91
60246;BME280;46107;53.356;-1.524;2023-02-14T08:38:25;100220.23;;;4.51;64.27
60246;BME280;46107;53.356;-1.524;2023-02-14T08:40:53;100220.70;;;5.40;62.04
60246;BME280;46107;53.356;-1.524;2023-02-14T08:43:21;100221.00;;;5.85;62.67
60246;BME280;46107;53.356;-1.524;2023-02-14T08:45:51;100211.00;;;6.46;60.97
60246;BME280;46107;53.356;-1.524;2023-02-14T08:48:19;100213.10;;;4.97;63.25
60246;BME280;46107;53.356;-1.524;2023-02-14T08:50:47;100226.25;;;6.44;63.50
60246;BME280;46107;53.356;-1.524;2023-02-14T08:53:14;100219.87;;;5.89;63.69
60246;BME280;46107;53.356;-1.524;2023-02-14T08:55:41;100213.52;;;6.56;63.28
60246;BME280;46107;53.356;-1.524;2023-02-14T08:58:09;100216.79;;;5.69;61.48
60246;BME280;46107;53.356;-1.524;2023-02-14T09:00:37;100210.67;;;5.43;63.02
60246;BME280;46107;53.356;-1.524;2023-02-14T09:03:04;100208.61;;;6.12;59.34
60246;BME280;46107;53.356;-1.524;2023-02-14T09:05:32;100201.69;;;6.73;58.79
60246;BME280;46107;53.356;-1.524;2023-02-14T09:08:01;100203.37;;;7.66;55.65
60246;BME280;46107;53.356;-1.524;2023-02-14T09:10:29;100203.17;;;5.04;59.45
60246;BME280;46107;53.356;-1.524;2023-02-14T09:12:57;100193.53;;;6.40;59.59
60246;BME280;46107;53.356;-1.524;2023-02-14T09:15:24;100210.36;;;5.52;61.79
60246;BME280;46107;53.356;-1.524;2023-02-14T09:17:52;100204.74;;;6.36;59.17
60246;BME280;46107;53.356;-1.524;2023-02-14T09:20:20;100204.67;;;6.51;62.06
60246;BME280;46107;53.356;-1.524;2023-02-14T09:22:48;100205.73;;;6.55;61.38
60246;BME280;46107;53.356;-1.524;2023-02-14T09:25:16;100204.68;;;7.00;59.57
60246;BME280;46107;53.356;-1.524;2023-02-14T09:27:43;100212.62;;;6.40;60.59
60246;BME280;46107;53.356;-1.524;2023-02-14T09:30:12;100213.23;;;6.74;58.18
60246;BME280;46107;53.356;-1.524;2023-02-14T09:32:40;100215.24;;;6.69;60.10
60246;BME280;46107;53.356;-1.524;2023-02-14T09:35:07;100207.11;;;6.90;58.95
60246;BME280;46107;53.356;-1.524;2023-02-14T09:37:35;100212.53;;;6.44;58.27
60246;BME280;46107;53.356;-1.524;2023-02-14T09:40:04;100212.29;;;6.43;63.00
60246;BME280;46107;53.356;-1.524;2023-02-14T09:42:45;100212.23;;;7.36;60.29
60246;BME280;46107;53.356;-1.524;2023-02-14T09:45:20;100212.03;;;7.41;58.90
60246;BME280;46107;53.356;-1.524;2023-02-14T09:47:50;100218.17;;;7.06;59.90
60246;BME280;46107;53.356;-1.524;2023-02-14T09:50:24;100219.40;;;7.43;58.83
60246;BME280;46107;53.356;-1.524;2023-02-14T09:52:57;100226.58;;;7.52;60.06
60246;BME280;46107;53.356;-1.524;2023-02-14T09:55:33;100225.34;;;6.50;63.40
60246;BME280;46107;53.356;-1.524;2023-02-14T09:58:06;100228.03;;;7.68;58.77
60246;BME280;46107;53.356;-1.524;2023-02-14T10:00:45;100224.49;;;8.03;56.22
60246;BME280;46107;53.356;-1.524;2023-02-14T10:04:02;100223.92;;;8.21;56.50
60246;BME280;46107;53.356;-1.524;2023-02-14T10:06:44;100225.89;;;7.22;61.35
60246;BME280;46107;53.356;-1.524;2023-02-14T10:09:21;100223.14;;;7.64;56.58
60246;BME280;46107;53.356;-1.524;2023-02-14T10:11:52;100225.07;;;8.04;53.23
60246;BME280;46107;53.356;-1.524;2023-02-14T10:14:23;100221.93;;;8.16;55.82
60246;BME280;46107;53.356;-1.524;2023-02-14T10:16:55;100222.39;;;8.11;53.84
60246;BME280;46107;53.356;-1.524;2023-02-14T10:19:31;100226.22;;;7.98;57.01
60246;BME280;46107;53.356;-1.524;2023-02-14T10:22:03;100231.39;;;8.13;56.50
60246;BME280;46107;53.356;-1.524;2023-02-14T10:24:35;100229.40;;;9.19;54.77
60246;BME280;46107;53.356;-1.524;2023-02-14T10:27:11;100229.53;;;8.93;51.88
60246;BME280;46107;53.356;-1.524;2023-02-14T10:29:43;100231.90;;;8.42;54.43
60246;BME280;46107;53.356;-1.524;2023-02-14T10:32:14;100231.80;;;8.58;55.48
60246;BME280;46107;53.356;-1.524;2023-02-14T10:34:47;100230.50;;;8.41;55.84
60246;BME280;46107;53.356;-1.524;2023-02-14T10:37:24;100231.12;;;8.92;54.76
60246;BME280;46107;53.356;-1.524;2023-02-14T10:40:20;100229.29;;;9.09;53.65
60246;BME280;46107;53.356;-1.524;2023-02-14T10:42:56;100230.74;;;8.20;55.92
60246;BME280;46107;53.356;-1.524;2023-02-14T10:45:33;100233.77;;;7.96;56.73
60246;BME280;46107;53.356;-1.524;2023-02-14T10:48:13;100223.00;;;8.68;56.32
60246;BME280;46107;53.356;-1.524;2023-02-14T10:50:48;100224.56;;;9.14;54.43
60246;BME280;46107;53.356;-1.524;2023-02-14T10:53:24;100228.62;;;9.57;54.06
60246;BME280;46107;53.356;-1.524;2023-02-14T10:55:58;100225.42;;;9.94;52.92
60246;BME280;46107;53.356;-1.524;2023-02-14T10:58:28;100227.01;;;8.62;56.08
60246;BME280;46107;53.356;-1.524;2023-02-14T11:01:01;100218.10;;;10.49;52.07
60246;BME280;46107;53.356;-1.524;2023-02-14T11:03:32;100211.36;;;9.40;54.32
60246;BME280;46107;53.356;-1.524;2023-02-14T11:06:01;100214.45;;;9.93;49.34
60246;BME280;46107;53.356;-1.524;2023-02-14T11:08:31;100214.52;;;10.19;47.71
60246;BME280;46107;53.356;-1.524;2023-02-14T11:11:03;100215.75;;;9.85;49.07
60246;BME280;46107;53.356;-1.524;2023-02-14T11:13:38;100211.04;;;9.35;52.44
60246;BME280;46107;53.356;-1.524;2023-02-14T11:16:09;100210.39;;;9.56;52.66
60246;BME280;46107;53.356;-1.524;2023-02-14T11:18:38;100200.18;;;11.01;47.49
60246;BME280;46107;53.356;-1.524;2023-02-14T11:21:09;100213.36;;;9.51;51.10
60246;BME280;46107;53.356;-1.524;2023-02-14T11:23:40;100213.25;;;9.91;50.97
60246;BME280;46107;53.356;-1.524;2023-02-14T11:26:13;100208.59;;;8.14;54.63
60246;BME280;46107;53.356;-1.524;2023-02-14T11:28:52;100202.87;;;8.57;53.55
60246;BME280;46107;53.356;-1.524;2023-02-14T11:31:29;100189.63;;;10.82;49.19
60246;BME280;46107;53.356;-1.524;2023-02-14T11:33:58;100193.65;;;10.33;49.00
60246;BME280;46107;53.356;-1.524;2023-02-14T11:36:27;100195.53;;;9.98;49.49
60246;BME280;46107;53.356;-1.524;2023-02-14T11:39:00;100192.47;;;8.87;49.68
60246;BME280;46107;53.356;-1.524;2023-02-14T11:41:46;100192.28;;;8.95;49.46
60246;BME280;46107;53.356;-1.524;2023-02-14T11:44:16;100191.58;;;10.06;45.29
60246;BME280;46107;53.356;-1.524;2023-02-14T11:46:45;100188.86;;;10.22;46.07
60246;BME280;46107;53.356;-1.524;2023-02-14T11:49:28;100189.31;;;9.93;42.60
60246;BME280;46107;53.356;-1.524;2023-02-14T11:51:58;100181.01;;;9.55;43.63
60246;BME280;46107;53.356;-1.524;2023-02-14T11:54:31;100173.17;;;9.84;44.97
60246;BME280;46107;53.356;-1.524;2023-02-14T11:57:04;100170.64;;;9.77;43.15
60246;BME280;46107;53.356;-1.524;2023-02-14T11:59:36;100172.20;;;9.72;44.06
60246;BME280;46107;53.356;-1.524;2023-02-14T12:02:24;100169.80;;;10.40;43.11
60246;BME280;46107;53.356;-1.524;2023-02-14T12:04:54;100170.23;;;10.89;41.54
60246;BME280;46107;53.356;-1.524;2023-02-14T12:07:26;100164.51;;;10.34;42.95
60246;BME280;46107;53.356;-1.524;2023-02-14T12:10:28;100160.59;;;10.52;42.34
60246;BME280;46107;53.356;-1.524;2023-02-14T12:12:59;100159.00;;;10.19;43.18
60246;BME280;46107;53.356;-1.524;2023-02-14T12:15:31;100155.10;;;11.52;40.24
60246;BME280;46107;53.356;-1.524;2023-02-14T12:18:15;100155.58;;;12.00;39.98
60246;BME280;46107;53.356;-1.524;2023-02-14T12:20:50;100158.63;;;11.95;40.05
60246;BME280;46107;53.356;-1.524;2023-02-14T12:23:24;100162.78;;;11.09;40.48
60246;BME280;46107;53.356;-1.524;2023-02-14T12:25:57;100156.26;;;11.60;40.39
60246;BME280;46107;53.356;-1.524;2023-02-14T12:28:33;100152.29;;;10.89;40.93
60246;BME280;46107;53.356;-1.524;2023-02-14T12:31:07;100145.09;;;9.83;43.76
60246;BME280;46107;53.356;-1.524;2023-02-14T12:33:35;100141.47;;;11.41;39.15
60246;BME280;46107;53.356;-1.524;2023-02-14T12:36:09;100134.68;;;10.34;42.03
60246;BME280;46107;53.356;-1.524;2023-02-14T12:38:48;100141.08;;;11.43;39.12
60246;BME280;46107;53.356;-1.524;2023-02-14T12:41:26;100136.02;;;11.89;39.16
60246;BME280;46107;53.356;-1.524;2023-02-14T12:43:59;100132.63;;;12.20;39.02
60246;BME280;46107;53.356;-1.524;2023-02-14T12:46:49;100125.22;;;12.09;39.59
60246;BME280;46107;53.356;-1.524;2023-02-14T12:49:33;100116.84;;;12.86;33.58
60246;BME280;46107;53.356;-1.524;2023-02-14T12:52:17;100114.61;;;12.71;34.19
60246;BME280;46107;53.356;-1.524;2023-02-14T12:55:00;100116.42;;;11.58;35.41
60246;BME280;46107;53.356;-1.524;2023-02-14T12:57:36;100102.12;;;12.56;34.50
60246;BME280;46107;53.356;-1.524;2023-02-14T13:00:19;100102.92;;;13.02;34.70
60246;BME280;46107;53.356;-1.524;2023-02-14T13:03:01;100101.40;;;12.43;35.63
60246;BME280;46107;53.356;-1.524;2023-02-14T13:05:45;100097.69;;;13.24;34.10
60246;BME280;46107;53.356;-1.524;2023-02-14T13:08:27;100092.91;;;13.15;33.66
60246;BME280;46107;53.356;-1.524;2023-02-14T13:11:07;100094.67;;;13.22;33.20